sensor_id;sensor_type;location;lat;lon;timestamp;P1;durP1;ratioP1;P2;durP2;ratioP2
13866;SDS011;7003;46.982;15.248;2022-10-16T00:01:19;23.33;;;17.10;;
13866;SDS011;7003;46.982;15.248;2022-10-16T00:03:48;30.63;;;19.58;;
13866;SDS011;7003;46.982;15.248;2022-10-16T00:06:17;30.15;;;18.52;;
13866;SDS011;7003;46.982;15.248;2022-10-16T00:08:48;31.05;;;18.92;;
13866;SDS011;7003;46.982;15.248;2022-10-16T00:11:18;26.17;;;16.48;;
13866;SDS011;7003;46.982;15.248;2022-10-16T00:13:47;24.08;;;18.58;;
13866;SDS011;7003;46.982;15.248;2022-10-16T00:16:17;22.98;;;15.65;;
13866;SDS011;7003;46.982;15.248;2022-10-16T00:18:48;29.33;;;17.08;;
13866;SDS011;7003;46.982;15.248;2022-10-16T00:21:16;32.53;;;19.15;;
13866;SDS011;7003;46.982;15.248;2022-10-16T00:23:44;35.10;;;18.67;;
13866;SDS011;7003;46.982;15.248;2022-10-16T00:26:13;30.17;;;17.63;;
13866;SDS011;7003;46.982;15.248;2022-10-16T00:28:46;24.25;;;16.45;;
13866;SDS011;7003;46.982;15.248;2022-10-16T00:31:16;19.33;;;15.88;;
13866;SDS011;7003;46.982;15.248;2022-10-16T00:33:44;30.63;;;17.70;;
13866;SDS011;7003;46.982;15.248;2022-10-16T00:36:12;27.83;;;17.95;;
13866;SDS011;7003;46.982;15.248;2022-10-16T00:38:40;26.10;;;17.05;;
13866;SDS011;7003;46.982;15.248;2022-10-16T00:41:09;27.50;;;16.17;;
13866;SDS011;7003;46.982;15.248;2022-10-16T00:43:41;30.77;;;18.15;;
13866;SDS011;7003;46.982;15.248;2022-10-16T00:46:15;29.25;;;19.27;;
13866;SDS011;7003;46.982;15.248;2022-10-16T00:48:46;23.95;;;15.38;;
13866;SDS011;7003;46.982;15.248;2022-10-16T00:51:19;26.48;;;16.38;;
13866;SDS011;7003;46.982;15.248;2022-10-16T00:53:49;25.38;;;16.83;;
13866;SDS011;7003;46.982;15.248;2022-10-16T00:56:17;21.95;;;16.15;;
13866;SDS011;7003;46.982;15.248;2022-10-16T00:58:46;24.30;;;16.42;;
13866;SDS011;7003;46.982;15.248;2022-10-16T01:01:15;25.27;;;14.75;;
13866;SDS011;7003;46.982;15.248;2022-10-16T01:03:47;24.10;;;16.15;;
13866;SDS011;7003;46.982;15.248;2022-10-16T01:06:23;25.38;;;17.00;;
13866;SDS011;7003;46.982;15.248;2022-10-16T01:08:55;20.77;;;14.40;;
13866;SDS011;7003;46.982;15.248;2022-10-16T01:11:33;28.10;;;15.57;;
13866;SDS011;7003;46.982;15.248;2022-10-16T01:14:06;24.02;;;16.42;;
13866;SDS011;7003;46.982;15.248;2022-10-16T01:16:46;19.10;;;14.13;;
13866;SDS011;7003;46.982;15.248;2022-10-16T01:19:25;19.52;;;15.00;;
13866;SDS011;7003;46.982;15.248;2022-10-16T01:22:02;23.92;;;16.05;;
13866;SDS011;7003;46.982;15.248;2022-10-16T01:24:33;21.98;;;14.95;;
13866;SDS011;7003;46.982;15.248;2022-10-16T01:27:13;23.80;;;15.23;;
13866;SDS011;7003;46.982;15.248;2022-10-16T01:29:48;19.98;;;13.13;;
13866;SDS011;7003;46.982;15.248;2022-10-16T01:32:25;23.48;;;14.70;;
13866;SDS011;7003;46.982;15.248;2022-10-16T01:35:02;18.55;;;12.85;;
13866;SDS011;7003;46.982;15.248;2022-10-16T01:37:37;21.63;;;13.82;;
13866;SDS011;7003;46.982;15.248;2022-10-16T01:40:09;21.50;;;14.30;;
13866;SDS011;7003;46.982;15.248;2022-10-16T01:42:41;20.85;;;15.85;;
13866;SDS011;7003;46.982;15.248;2022-10-16T01:45:13;25.35;;;17.00;;
13866;SDS011;7003;46.982;15.248;2022-10-16T01:47:46;24.13;;;15.45;;
13866;SDS011;7003;46.982;15.248;2022-10-16T01:50:18;20.30;;;15.82;;
13866;SDS011;7003;46.982;15.248;2022-10-16T01:52:51;21.67;;;14.18;;
13866;SDS011;7003;46.982;15.248;2022-10-16T01:55:24;20.20;;;15.43;;
13866;SDS011;7003;46.982;15.248;2022-10-16T01:57:57;21.90;;;14.95;;
13866;SDS011;7003;46.982;15.248;2022-10-16T02:00:26;21.23;;;15.52;;
13866;SDS011;7003;46.982;15.248;2022-10-16T02:02:56;19.23;;;14.60;;
13866;SDS011;7003;46.982;15.248;2022-10-16T02:05:28;21.25;;;14.95;;
13866;SDS011;7003;46.982;15.248;2022-10-16T02:08:01;25.83;;;15.35;;
13866;SDS011;7003;46.982;15.248;2022-10-16T02:10:31;23.10;;;14.50;;
13866;SDS011;7003;46.982;15.248;2022-10-16T02:13:06;20.85;;;14.32;;
13866;SDS011;7003;46.982;15.248;2022-10-16T02:15:39;24.42;;;16.00;;
13866;SDS011;7003;46.982;15.248;2022-10-16T02:18:15;24.42;;;14.07;;
13866;SDS011;7003;46.982;15.248;2022-10-16T02:20:46;29.00;;;17.63;;
13866;SDS011;7003;46.982;15.248;2022-10-16T02:23:22;25.58;;;16.00;;
13866;SDS011;7003;46.982;15.248;2022-10-16T02:25:55;27.45;;;17.05;;
13866;SDS011;7003;46.982;15.248;2022-10-16T02:28:27;24.35;;;13.85;;
13866;SDS011;7003;46.982;15.248;2022-10-16T02:31:00;18.65;;;13.32;;
13866;SDS011;7003;46.982;15.248;2022-10-16T02:33:31;19.77;;;14.88;;
13866;SDS011;7003;46.982;15.248;2022-10-16T02:36:01;24.20;;;15.00;;
13866;SDS011;7003;46.982;15.248;2022-10-16T02:38:31;22.55;;;14.25;;
13866;SDS011;7003;46.982;15.248;2022-10-16T02:40:59;26.38;;;13.52;;
13866;SDS011;7003;46.982;15.248;2022-10-16T02:43:30;23.67;;;15.13;;
13866;SDS011;7003;46.982;15.248;2022-10-16T02:46:01;24.50;;;14.95;;
13866;SDS011;7003;46.982;15.248;2022-10-16T02:48:29;21.50;;;15.40;;
13866;SDS011;7003;46.982;15.248;2022-10-16T02:50:58;24.50;;;13.95;;
13866;SDS011;7003;46.982;15.248;2022-10-16T02:53:25;19.95;;;13.70;;
13866;SDS011;7003;46.982;15.248;2022-10-16T02:55:52;19.38;;;13.60;;
13866;SDS011;7003;46.982;15.248;2022-10-16T02:58:20;20.70;;;12.93;;
13866;SDS011;7003;46.982;15.248;2022-10-16T03:00:50;18.58;;;12.10;;
13866;SDS011;7003;46.982;15.248;2022-10-16T03:03:17;25.20;;;12.93;;
13866;SDS011;7003;46.982;15.248;2022-10-16T03:05:47;21.40;;;12.85;;
13866;SDS011;7003;46.982;15.248;2022-10-16T03:08:16;19.10;;;12.10;;
13866;SDS011;7003;46.982;15.248;2022-10-16T03:10:49;19.48;;;12.30;;
13866;SDS011;7003;46.982;15.248;2022-10-16T03:13:17;20.55;;;14.07;;
13866;SDS011;7003;46.982;15.248;2022-10-16T03:15:45;17.35;;;13.98;;
13866;SDS011;7003;46.982;15.248;2022-10-16T03:18:16;23.05;;;13.90;;
13866;SDS011;7003;46.982;15.248;2022-10-16T03:20:43;22.05;;;13.68;;
13866;SDS011;7003;46.982;15.248;2022-10-16T03:23:11;23.70;;;13.38;;
13866;SDS011;7003;46.982;15.248;2022-10-16T03:25:40;21.02;;;15.15;;
13866;SDS011;7003;46.982;15.248;2022-10-16T03:28:07;21.02;;;14.50;;
13866;SDS011;7003;46.982;15.248;2022-10-16T03:30:34;19.63;;;12.63;;
13866;SDS011;7003;46.982;15.248;2022-10-16T03:33:03;16.48;;;12.48;;
13866;SDS011;7003;46.982;15.248;2022-10-16T03:35:35;19.42;;;13.68;;
13866;SDS011;7003;46.982;15.248;2022-10-16T03:38:04;18.05;;;12.82;;
13866;SDS011;7003;46.982;15.248;2022-10-16T03:40:34;20.13;;;13.55;;
13866;SDS011;7003;46.982;15.248;2022-10-16T03:43:01;21.13;;;14.88;;
13866;SDS011;7003;46.982;15.248;2022-10-16T03:45:28;17.42;;;10.77;;
13866;SDS011;7003;46.982;15.248;2022-10-16T03:47:57;18.65;;;12.15;;
13866;SDS011;7003;46.982;15.248;2022-10-16T03:50:26;22.23;;;13.90;;
13866;SDS011;7003;46.982;15.248;2022-10-16T03:52:55;18.88;;;11.43;;
13866;SDS011;7003;46.982;15.248;2022-10-16T03:55:22;21.48;;;12.05;;
13866;SDS011;7003;46.982;15.248;2022-10-16T03:57:51;18.90;;;12.68;;
13866;SDS011;7003;46.982;15.248;2022-10-16T04:00:18;16.50;;;11.88;;
13866;SDS011;7003;46.982;15.248;2022-10-16T04:02:48;17.67;;;11.15;;
13866;SDS011;7003;46.982;15.248;2022-10-16T04:05:15;15.02;;;12.05;;
13866;SDS011;7003;46.982;15.248;2022-10-16T04:07:42;14.93;;;10.48;;
13866;SDS011;7003;46.982;15.248;2022-10-16T04:10:11;14.48;;;10.70;;
13866;SDS011;7003;46.982;15.248;2022-10-16T04:12:40;13.52;;;11.02;;
13866;SDS011;7003;46.982;15.248;2022-10-16T04:15:07;12.82;;;10.13;;
13866;SDS011;7003;46.982;15.248;2022-10-16T04:17:35;13.75;;;9.55;;
13866;SDS011;7003;46.982;15.248;2022-10-16T04:20:02;15.10;;;11.02;;
13866;SDS011;7003;46.982;15.248;2022-10-16T04:22:30;14.63;;;10.63;;
13866;SDS011;7003;46.982;15.248;2022-10-16T04:24:59;18.77;;;11.05;;
13866;SDS011;7003;46.982;15.248;2022-10-16T04:27:28;14.00;;;8.77;;
13866;SDS011;7003;46.982;15.248;2022-10-16T04:29:56;13.25;;;9.48;;
13866;SDS011;7003;46.982;15.248;2022-10-16T04:32:24;18.38;;;10.52;;
13866;SDS011;7003;46.982;15.248;2022-10-16T04:34:51;20.80;;;11.85;;
13866;SDS011;7003;46.982;15.248;2022-10-16T04:37:23;13.85;;;10.27;;
13866;SDS011;7003;46.982;15.248;2022-10-16T04:39:53;14.07;;;9.23;;
13866;SDS011;7003;46.982;15.248;2022-10-16T04:42:23;16.17;;;11.00;;
13866;SDS011;7003;46.982;15.248;2022-10-16T04:44:53;15.75;;;10.77;;
13866;SDS011;7003;46.982;15.248;2022-10-16T04:47:20;13.93;;;9.88;;
13866;SDS011;7003;46.982;15.248;2022-10-16T04:49:50;16.83;;;10.32;;
13866;SDS011;7003;46.982;15.248;2022-10-16T04:52:17;20.02;;;11.40;;
13866;SDS011;7003;46.982;15.248;2022-10-16T04:54:45;15.93;;;10.10;;
13866;SDS011;7003;46.982;15.248;2022-10-16T04:57:12;17.90;;;10.60;;
13866;SDS011;7003;46.982;15.248;2022-10-16T04:59:42;16.77;;;10.60;;
13866;SDS011;7003;46.982;15.248;2022-10-16T05:02:10;17.10;;;12.43;;
13866;SDS011;7003;46.982;15.248;2022-10-16T05:04:38;19.95;;;12.73;;
13866;SDS011;7003;46.982;15.248;2022-10-16T05:07:06;16.27;;;9.60;;
13866;SDS011;7003;46.982;15.248;2022-10-16T05:09:37;11.80;;;9.70;;
13866;SDS011;7003;46.982;15.248;2022-10-16T05:12:05;11.65;;;9.63;;
13866;SDS011;7003;46.982;15.248;2022-10-16T05:14:33;14.27;;;10.68;;
13866;SDS011;7003;46.982;15.248;2022-10-16T05:17:01;16.53;;;10.80;;
13866;SDS011;7003;46.982;15.248;2022-10-16T05:19:31;12.68;;;8.82;;
13866;SDS011;7003;46.982;15.248;2022-10-16T05:21:59;15.10;;;10.80;;
13866;SDS011;7003;46.982;15.248;2022-10-16T05:24:27;15.80;;;9.70;;
13866;SDS011;7003;46.982;15.248;2022-10-16T05:26:56;15.50;;;10.73;;
13866;SDS011;7003;46.982;15.248;2022-10-16T05:29:29;15.57;;;10.82;;
13866;SDS011;7003;46.982;15.248;2022-10-16T05:32:00;10.85;;;9.68;;
13866;SDS011;7003;46.982;15.248;2022-10-16T05:34:28;13.05;;;10.25;;
13866;SDS011;7003;46.982;15.248;2022-10-16T05:36:58;14.85;;;10.05;;
13866;SDS011;7003;46.982;15.248;2022-10-16T05:39:29;14.85;;;9.13;;
13866;SDS011;7003;46.982;15.248;2022-10-16T05:42:00;14.93;;;9.70;;
13866;SDS011;7003;46.982;15.248;2022-10-16T05:44:28;13.45;;;8.88;;
13866;SDS011;7003;46.982;15.248;2022-10-16T05:46:56;17.52;;;9.63;;
13866;SDS011;7003;46.982;15.248;2022-10-16T05:49:26;18.50;;;11.65;;
13866;SDS011;7003;46.982;15.248;2022-10-16T05:51:54;13.88;;;9.40;;
13866;SDS011;7003;46.982;15.248;2022-10-16T05:54:25;16.52;;;12.00;;
13866;SDS011;7003;46.982;15.248;2022-10-16T05:56:54;17.42;;;11.98;;
13866;SDS011;7003;46.982;15.248;2022-10-16T05:59:23;20.58;;;12.25;;
13866;SDS011;7003;46.982;15.248;2022-10-16T06:01:52;15.52;;;10.35;;
13866;SDS011;7003;46.982;15.248;2022-10-16T06:04:24;17.85;;;11.13;;
13866;SDS011;7003;46.982;15.248;2022-10-16T06:06:54;17.17;;;10.13;;
13866;SDS011;7003;46.982;15.248;2022-10-16T06:09:28;15.00;;;10.75;;
13866;SDS011;7003;46.982;15.248;2022-10-16T06:11:57;19.40;;;12.27;;
13866;SDS011;7003;46.982;15.248;2022-10-16T06:14:25;12.65;;;9.43;;
13866;SDS011;7003;46.982;15.248;2022-10-16T06:16:54;16.77;;;10.55;;
13866;SDS011;7003;46.982;15.248;2022-10-16T06:19:23;12.60;;;9.20;;
13866;SDS011;7003;46.982;15.248;2022-10-16T06:21:52;15.35;;;9.45;;
13866;SDS011;7003;46.982;15.248;2022-10-16T06:24:20;17.52;;;10.70;;
13866;SDS011;7003;46.982;15.248;2022-10-16T06:26:51;16.08;;;11.15;;
13866;SDS011;7003;46.982;15.248;2022-10-16T06:29:20;12.35;;;9.07;;
13866;SDS011;7003;46.982;15.248;2022-10-16T06:31:49;16.85;;;12.85;;
13866;SDS011;7003;46.982;15.248;2022-10-16T06:34:19;16.65;;;12.68;;
13866;SDS011;7003;46.982;15.248;2022-10-16T06:36:48;19.02;;;10.80;;
13866;SDS011;7003;46.982;15.248;2022-10-16T06:39:18;15.40;;;10.40;;
13866;SDS011;7003;46.982;15.248;2022-10-16T06:41:47;16.92;;;10.65;;
13866;SDS011;7003;46.982;15.248;2022-10-16T06:44:16;15.77;;;10.88;;
13866;SDS011;7003;46.982;15.248;2022-10-16T06:46:44;17.45;;;11.07;;
13866;SDS011;7003;46.982;15.248;2022-10-16T06:49:13;14.07;;;10.23;;
13866;SDS011;7003;46.982;15.248;2022-10-16T06:51:47;12.75;;;9.23;;
13866;SDS011;7003;46.982;15.248;2022-10-16T06:54:15;14.13;;;10.13;;
13866;SDS011;7003;46.982;15.248;2022-10-16T06:56:44;13.10;;;9.13;;
13866;SDS011;7003;46.982;15.248;2022-10-16T06:59:13;14.20;;;9.82;;
13866;SDS011;7003;46.982;15.248;2022-10-16T07:01:43;11.75;;;9.18;;
13866;SDS011;7003;46.982;15.248;2022-10-16T07:04:11;14.40;;;9.73;;
13866;SDS011;7003;46.982;15.248;2022-10-16T07:06:39;20.75;;;11.60;;
13866;SDS011;7003;46.982;15.248;2022-10-16T07:09:08;13.45;;;9.32;;
13866;SDS011;7003;46.982;15.248;2022-10-16T07:11:38;22.50;;;11.57;;
13866;SDS011;7003;46.982;15.248;2022-10-16T07:14:12;14.65;;;10.30;;
13866;SDS011;7003;46.982;15.248;2022-10-16T07:16:44;13.45;;;9.13;;
13866;SDS011;7003;46.982;15.248;2022-10-16T07:19:14;11.90;;;8.23;;
13866;SDS011;7003;46.982;15.248;2022-10-16T07:21:46;15.95;;;9.25;;
13866;SDS011;7003;46.982;15.248;2022-10-16T07:24:15;16.30;;;11.10;;
13866;SDS011;7003;46.982;15.248;2022-10-16T07:26:46;13.48;;;8.57;;
13866;SDS011;7003;46.982;15.248;2022-10-16T07:29:17;13.95;;;9.43;;
13866;SDS011;7003;46.982;15.248;2022-10-16T07:31:48;10.68;;;7.90;;
13866;SDS011;7003;46.982;15.248;2022-10-16T07:34:17;11.63;;;8.98;;
13866;SDS011;7003;46.982;15.248;2022-10-16T07:36:54;13.32;;;8.57;;
13866;SDS011;7003;46.982;15.248;2022-10-16T07:39:25;11.77;;;9.13;;
13866;SDS011;7003;46.982;15.248;2022-10-16T07:41:52;9.88;;;6.93;;
13866;SDS011;7003;46.982;15.248;2022-10-16T07:44:20;10.25;;;6.80;;
13866;SDS011;7003;46.982;15.248;2022-10-16T07:46:55;11.82;;;7.50;;
13866;SDS011;7003;46.982;15.248;2022-10-16T07:49:23;10.52;;;6.50;;
13866;SDS011;7003;46.982;15.248;2022-10-16T07:51:51;17.63;;;7.47;;
13866;SDS011;7003;46.982;15.248;2022-10-16T07:54:19;9.55;;;7.57;;
13866;SDS011;7003;46.982;15.248;2022-10-16T07:56:51;8.10;;;7.25;;
13866;SDS011;7003;46.982;15.248;2022-10-16T07:59:19;9.40;;;6.10;;
13866;SDS011;7003;46.982;15.248;2022-10-16T08:01:50;9.43;;;6.15;;
13866;SDS011;7003;46.982;15.248;2022-10-16T08:04:23;6.78;;;5.10;;
13866;SDS011;7003;46.982;15.248;2022-10-16T08:06:53;9.63;;;6.22;;
13866;SDS011;7003;46.982;15.248;2022-10-16T08:09:22;9.07;;;6.30;;
13866;SDS011;7003;46.982;15.248;2022-10-16T08:11:52;8.02;;;6.22;;
13866;SDS011;7003;46.982;15.248;2022-10-16T08:14:20;9.30;;;6.25;;
13866;SDS011;7003;46.982;15.248;2022-10-16T08:16:48;8.50;;;5.05;;
13866;SDS011;7003;46.982;15.248;2022-10-16T08:19:16;9.00;;;6.00;;
13866;SDS011;7003;46.982;15.248;2022-10-16T08:21:48;5.28;;;4.78;;
13866;SDS011;7003;46.982;15.248;2022-10-16T08:24:16;6.55;;;5.18;;
13866;SDS011;7003;46.982;15.248;2022-10-16T08:26:44;5.80;;;5.18;;
13866;SDS011;7003;46.982;15.248;2022-10-16T08:29:14;7.63;;;5.40;;
13866;SDS011;7003;46.982;15.248;2022-10-16T08:31:42;8.25;;;5.55;;
13866;SDS011;7003;46.982;15.248;2022-10-16T08:34:13;6.45;;;5.55;;
13866;SDS011;7003;46.982;15.248;2022-10-16T08:36:41;6.22;;;4.85;;
13866;SDS011;7003;46.982;15.248;2022-10-16T08:39:10;6.38;;;5.18;;
13866;SDS011;7003;46.982;15.248;2022-10-16T08:45:00;7.60;;;5.45;;
13866;SDS011;7003;46.982;15.248;2022-10-16T08:47:45;8.50;;;5.72;;
13866;SDS011;7003;46.982;15.248;2022-10-16T08:50:24;8.35;;;6.05;;
13866;SDS011;7003;46.982;15.248;2022-10-16T08:52:54;8.40;;;6.70;;
13866;SDS011;7003;46.982;15.248;2022-10-16T08:55:33;7.50;;;5.43;;
13866;SDS011;7003;46.982;15.248;2022-10-16T08:58:12;7.25;;;6.03;;
13866;SDS011;7003;46.982;15.248;2022-10-16T09:00:44;13.82;;;6.53;;
13866;SDS011;7003;46.982;15.248;2022-10-16T09:03:21;8.35;;;6.03;;
13866;SDS011;7003;46.982;15.248;2022-10-16T09:06:02;7.95;;;6.30;;
13866;SDS011;7003;46.982;15.248;2022-10-16T09:08:47;7.43;;;5.70;;
13866;SDS011;7003;46.982;15.248;2022-10-16T09:11:33;8.25;;;6.82;;
13866;SDS011;7003;46.982;15.248;2022-10-16T09:14:15;7.47;;;6.72;;
13866;SDS011;7003;46.982;15.248;2022-10-16T09:16:54;6.13;;;5.53;;
13866;SDS011;7003;46.982;15.248;2022-10-16T09:19:28;8.60;;;6.10;;
13866;SDS011;7003;46.982;15.248;2022-10-16T09:22:01;7.50;;;6.05;;
13866;SDS011;7003;46.982;15.248;2022-10-16T09:24:37;6.03;;;5.43;;
13866;SDS011;7003;46.982;15.248;2022-10-16T09:27:08;10.55;;;7.25;;
13866;SDS011;7003;46.982;15.248;2022-10-16T09:29:40;8.20;;;6.25;;
13866;SDS011;7003;46.982;15.248;2022-10-16T09:32:11;8.30;;;6.38;;
13866;SDS011;7003;46.982;15.248;2022-10-16T09:34:42;7.70;;;5.60;;
13866;SDS011;7003;46.982;15.248;2022-10-16T09:37:17;9.52;;;7.65;;
13866;SDS011;7003;46.982;15.248;2022-10-16T09:39:46;8.52;;;6.57;;
13866;SDS011;7003;46.982;15.248;2022-10-16T09:42:18;10.45;;;6.85;;
13866;SDS011;7003;46.982;15.248;2022-10-16T09:44:51;12.65;;;8.10;;
13866;SDS011;7003;46.982;15.248;2022-10-16T09:47:21;9.50;;;7.53;;
13866;SDS011;7003;46.982;15.248;2022-10-16T09:49:51;9.82;;;7.38;;
13866;SDS011;7003;46.982;15.248;2022-10-16T09:52:22;9.10;;;6.78;;
13866;SDS011;7003;46.982;15.248;2022-10-16T09:54:51;9.25;;;7.88;;
13866;SDS011;7003;46.982;15.248;2022-10-16T09:57:23;10.43;;;7.05;;
13866;SDS011;7003;46.982;15.248;2022-10-16T09:59:52;10.77;;;8.73;;
13866;SDS011;7003;46.982;15.248;2022-10-16T10:02:25;7.80;;;6.68;;
13866;SDS011;7003;46.982;15.248;2022-10-16T10:04:59;7.60;;;6.63;;
13866;SDS011;7003;46.982;15.248;2022-10-16T10:07:31;9.18;;;8.15;;
13866;SDS011;7003;46.982;15.248;2022-10-16T10:10:01;10.18;;;8.05;;
13866;SDS011;7003;46.982;15.248;2022-10-16T10:12:32;9.50;;;7.00;;
13866;SDS011;7003;46.982;15.248;2022-10-16T10:15:04;12.48;;;7.93;;
13866;SDS011;7003;46.982;15.248;2022-10-16T10:17:44;10.55;;;7.53;;
13866;SDS011;7003;46.982;15.248;2022-10-16T10:20:15;11.98;;;7.88;;
13866;SDS011;7003;46.982;15.248;2022-10-16T10:22:49;10.88;;;7.60;;
13866;SDS011;7003;46.982;15.248;2022-10-16T10:31:11;10.30;;;8.25;;
13866;SDS011;7003;46.982;15.248;2022-10-16T10:33:42;8.70;;;7.38;;
13866;SDS011;7003;46.982;15.248;2022-10-16T10:36:19;11.73;;;8.95;;
13866;SDS011;7003;46.982;15.248;2022-10-16T10:38:56;10.40;;;7.70;;
13866;SDS011;7003;46.982;15.248;2022-10-16T10:41:30;8.82;;;6.70;;
13866;SDS011;7003;46.982;15.248;2022-10-16T10:44:25;9.18;;;8.05;;
13866;SDS011;7003;46.982;15.248;2022-10-16T10:47:06;12.05;;;8.27;;
13866;SDS011;7003;46.982;15.248;2022-10-16T10:49:47;9.20;;;7.68;;
13866;SDS011;7003;46.982;15.248;2022-10-16T10:52:34;9.65;;;7.82;;
13866;SDS011;7003;46.982;15.248;2022-10-16T10:55:15;7.47;;;6.78;;
13866;SDS011;7003;46.982;15.248;2022-10-16T10:57:55;8.02;;;7.13;;
13866;SDS011;7003;46.982;15.248;2022-10-16T11:00:43;11.75;;;8.15;;
13866;SDS011;7003;46.982;15.248;2022-10-16T11:03:26;9.02;;;7.70;;
13866;SDS011;7003;46.982;15.248;2022-10-16T11:06:14;8.45;;;7.55;;
13866;SDS011;7003;46.982;15.248;2022-10-16T11:08:48;7.88;;;6.60;;
13866;SDS011;7003;46.982;15.248;2022-10-16T11:11:20;8.80;;;7.32;;
13866;SDS011;7003;46.982;15.248;2022-10-16T11:13:54;10.45;;;8.35;;
13866;SDS011;7003;46.982;15.248;2022-10-16T11:16:31;11.20;;;7.78;;
13866;SDS011;7003;46.982;15.248;2022-10-16T11:19:08;8.18;;;7.45;;
13866;SDS011;7003;46.982;15.248;2022-10-16T11:21:43;8.80;;;7.95;;
13866;SDS011;7003;46.982;15.248;2022-10-16T11:24:19;9.15;;;8.10;;
13866;SDS011;7003;46.982;15.248;2022-10-16T11:26:50;11.50;;;8.25;;
13866;SDS011;7003;46.982;15.248;2022-10-16T11:29:22;11.52;;;7.80;;
13866;SDS011;7003;46.982;15.248;2022-10-16T11:31:57;6.85;;;6.15;;
13866;SDS011;7003;46.982;15.248;2022-10-16T11:34:28;10.15;;;7.28;;
13866;SDS011;7003;46.982;15.248;2022-10-16T11:37:05;6.60;;;5.97;;
13866;SDS011;7003;46.982;15.248;2022-10-16T11:39:40;8.07;;;7.05;;
13866;SDS011;7003;46.982;15.248;2022-10-16T11:42:13;9.23;;;6.32;;
13866;SDS011;7003;46.982;15.248;2022-10-16T11:44:52;8.65;;;7.68;;
13866;SDS011;7003;46.982;15.248;2022-10-16T11:47:30;7.32;;;6.28;;
13866;SDS011;7003;46.982;15.248;2022-10-16T11:50:03;8.85;;;7.95;;
13866;SDS011;7003;46.982;15.248;2022-10-16T11:52:44;8.98;;;7.00;;
13866;SDS011;7003;46.982;15.248;2022-10-16T11:55:22;11.65;;;7.70;;
13866;SDS011;7003;46.982;15.248;2022-10-16T11:57:57;8.75;;;6.50;;
13866;SDS011;7003;46.982;15.248;2022-10-16T12:00:32;9.57;;;7.85;;
13866;SDS011;7003;46.982;15.248;2022-10-16T12:03:14;13.25;;;7.93;;
13866;SDS011;7003;46.982;15.248;2022-10-16T12:05:55;9.63;;;7.63;;
13866;SDS011;7003;46.982;15.248;2022-10-16T12:08:39;9.23;;;7.13;;
13866;SDS011;7003;46.982;15.248;2022-10-16T12:11:09;12.70;;;7.65;;
13866;SDS011;7003;46.982;15.248;2022-10-16T12:14:19;7.85;;;6.32;;
13866;SDS011;7003;46.982;15.248;2022-10-16T12:16:59;8.65;;;7.05;;
13866;SDS011;7003;46.982;15.248;2022-10-16T12:19:35;8.88;;;7.18;;
13866;SDS011;7003;46.982;15.248;2022-10-16T12:22:15;9.20;;;7.60;;
13866;SDS011;7003;46.982;15.248;2022-10-16T12:24:46;8.07;;;7.28;;
13866;SDS011;7003;46.982;15.248;2022-10-16T12:27:21;10.57;;;7.90;;
13866;SDS011;7003;46.982;15.248;2022-10-16T12:29:57;10.05;;;7.80;;
13866;SDS011;7003;46.982;15.248;2022-10-16T12:32:30;10.20;;;8.05;;
13866;SDS011;7003;46.982;15.248;2022-10-16T12:35:05;7.00;;;5.88;;
13866;SDS011;7003;46.982;15.248;2022-10-16T12:37:45;10.43;;;6.93;;
13866;SDS011;7003;46.982;15.248;2022-10-16T12:40:15;8.93;;;7.50;;
13866;SDS011;7003;46.982;15.248;2022-10-16T12:42:51;9.10;;;7.47;;
13866;SDS011;7003;46.982;15.248;2022-10-16T12:45:26;11.13;;;7.28;;
13866;SDS011;7003;46.982;15.248;2022-10-16T12:47:57;8.15;;;6.25;;
13866;SDS011;7003;46.982;15.248;2022-10-16T12:50:32;9.48;;;7.20;;
13866;SDS011;7003;46.982;15.248;2022-10-16T12:53:02;10.23;;;6.95;;
13866;SDS011;7003;46.982;15.248;2022-10-16T12:55:33;8.82;;;7.97;;
13866;SDS011;7003;46.982;15.248;2022-10-16T12:58:14;9.07;;;8.18;;
13866;SDS011;7003;46.982;15.248;2022-10-16T13:01:07;10.57;;;8.80;;
13866;SDS011;7003;46.982;15.248;2022-10-16T13:07:06;8.45;;;7.03;;
13866;SDS011;7003;46.982;15.248;2022-10-16T13:09:52;8.45;;;6.78;;
13866;SDS011;7003;46.982;15.248;2022-10-16T13:12:37;9.00;;;7.97;;
13866;SDS011;7003;46.982;15.248;2022-10-16T13:15:22;10.55;;;8.55;;
13866;SDS011;7003;46.982;15.248;2022-10-16T13:18:00;10.60;;;7.32;;
13866;SDS011;7003;46.982;15.248;2022-10-16T13:20:46;7.63;;;6.80;;
13866;SDS011;7003;46.982;15.248;2022-10-16T13:23:29;10.23;;;7.28;;
13866;SDS011;7003;46.982;15.248;2022-10-16T13:26:09;10.30;;;8.50;;
13866;SDS011;7003;46.982;15.248;2022-10-16T13:28:47;11.48;;;9.23;;
13866;SDS011;7003;46.982;15.248;2022-10-16T13:31:22;12.10;;;9.23;;
13866;SDS011;7003;46.982;15.248;2022-10-16T13:33:53;12.63;;;9.77;;
13866;SDS011;7003;46.982;15.248;2022-10-16T13:36:25;13.18;;;8.95;;
13866;SDS011;7003;46.982;15.248;2022-10-16T13:39:10;12.43;;;9.02;;
13866;SDS011;7003;46.982;15.248;2022-10-16T13:41:46;10.82;;;8.70;;
13866;SDS011;7003;46.982;15.248;2022-10-16T13:44:26;12.35;;;9.45;;
13866;SDS011;7003;46.982;15.248;2022-10-16T13:46:59;14.02;;;9.95;;
13866;SDS011;7003;46.982;15.248;2022-10-16T13:49:29;12.77;;;9.63;;
13866;SDS011;7003;46.982;15.248;2022-10-16T13:51:58;11.82;;;8.90;;
13866;SDS011;7003;46.982;15.248;2022-10-16T13:54:34;13.23;;;8.48;;
13866;SDS011;7003;46.982;15.248;2022-10-16T13:57:04;13.32;;;9.73;;
13866;SDS011;7003;46.982;15.248;2022-10-16T13:59:38;12.73;;;9.18;;
13866;SDS011;7003;46.982;15.248;2022-10-16T14:02:10;13.98;;;9.00;;
13866;SDS011;7003;46.982;15.248;2022-10-16T14:04:47;10.32;;;7.78;;
13866;SDS011;7003;46.982;15.248;2022-10-16T14:07:23;10.95;;;9.32;;
13866;SDS011;7003;46.982;15.248;2022-10-16T14:09:58;12.63;;;8.77;;
13866;SDS011;7003;46.982;15.248;2022-10-16T14:12:32;11.52;;;9.20;;
13866;SDS011;7003;46.982;15.248;2022-10-16T14:15:04;11.13;;;8.07;;
13866;SDS011;7003;46.982;15.248;2022-10-16T14:17:45;13.18;;;10.63;;
13866;SDS011;7003;46.982;15.248;2022-10-16T14:20:19;10.98;;;8.85;;
13866;SDS011;7003;46.982;15.248;2022-10-16T14:23:00;12.02;;;9.32;;
13866;SDS011;7003;46.982;15.248;2022-10-16T14:25:37;11.20;;;8.63;;
13866;SDS011;7003;46.982;15.248;2022-10-16T14:28:14;10.32;;;8.10;;
13866;SDS011;7003;46.982;15.248;2022-10-16T14:30:49;12.20;;;9.25;;
13866;SDS011;7003;46.982;15.248;2022-10-16T14:33:30;11.98;;;10.23;;
13866;SDS011;7003;46.982;15.248;2022-10-16T14:36:03;16.13;;;9.63;;
13866;SDS011;7003;46.982;15.248;2022-10-16T14:38:39;14.32;;;11.10;;
13866;SDS011;7003;46.982;15.248;2022-10-16T14:41:13;10.73;;;9.27;;
13866;SDS011;7003;46.982;15.248;2022-10-16T14:43:49;11.88;;;9.35;;
13866;SDS011;7003;46.982;15.248;2022-10-16T14:46:21;12.80;;;10.07;;
13866;SDS011;7003;46.982;15.248;2022-10-16T14:48:59;13.93;;;10.60;;
13866;SDS011;7003;46.982;15.248;2022-10-16T14:51:32;13.73;;;10.20;;
13866;SDS011;7003;46.982;15.248;2022-10-16T14:54:02;11.35;;;9.15;;
13866;SDS011;7003;46.982;15.248;2022-10-16T14:56:35;9.73;;;7.88;;
13866;SDS011;7003;46.982;15.248;2022-10-16T14:59:15;9.13;;;8.20;;
13866;SDS011;7003;46.982;15.248;2022-10-16T15:01:50;11.05;;;9.13;;
13866;SDS011;7003;46.982;15.248;2022-10-16T15:04:21;9.23;;;8.13;;
13866;SDS011;7003;46.982;15.248;2022-10-16T15:06:54;12.55;;;9.73;;
13866;SDS011;7003;46.982;15.248;2022-10-16T15:09:25;11.82;;;9.43;;
13866;SDS011;7003;46.982;15.248;2022-10-16T15:12:02;10.27;;;8.63;;
13866;SDS011;7003;46.982;15.248;2022-10-16T15:14:32;12.25;;;9.10;;
13866;SDS011;7003;46.982;15.248;2022-10-16T15:17:04;9.10;;;8.23;;